Time;durP1;ratioP1;P1;durP2;ratioP2;P2;SDS_P1;SDS_P2;PMS_P1;PMS_P2;Temp;Humidity;BMP_temperature;BMP_pressure;BME280_temperature;BME280_humidity;BME280_pressure;Samples;Min_cycle;Max_cycle;Signal;HPM_P1;HPM_P2
2021/03/16 00:00:28;;;;;;;4.15;1.40;;;20.80;99.90;;;;;;5074156;28;20397;-81
2021/03/16 00:02:57;;;;;;;7.05;1.50;;;21.20;99.90;;;;;;5073473;28;20487;-80
2021/03/16 00:05:24;;;;;;;4.82;1.25;;;21.70;99.90;;;;;;5059628;28;20441;-81
2021/03/16 00:07:52;;;;;;;4.90;0.90;;;22.20;99.90;;;;;;5078862;28;20421;-81
2021/03/16 00:10:19;;;;;;;4.93;1.38;;;22.50;99.90;;;;;;5069584;28;20384;-80
2021/03/16 00:12:46;;;;;;;4.95;0.95;;;22.20;99.90;;;;;;5068708;28;20394;-79
2021/03/16 00:15:13;;;;;;;4.32;0.80;;;21.50;99.90;;;;;;5071758;28;20396;-79
2021/03/16 00:17:41;;;;;;;4.10;1.17;;;21.10;99.90;;;;;;5067025;28;20398;-79
2021/03/16 00:20:08;;;;;;;3.55;1.13;;;20.70;99.90;;;;;;5080155;28;20396;-79
2021/03/16 00:22:35;;;;;;;4.75;1.20;;;20.20;99.90;;;;;;5067631;28;20441;-80
2021/03/16 00:25:03;;;;;;;3.97;1.02;;;19.90;99.90;;;;;;5069050;28;20476;-80
2021/03/16 00:27:30;;;;;;;5.88;1.08;;;19.80;99.90;;;;;;5075110;28;20405;-80
2021/03/16 00:29:57;;;;;;;5.78;1.20;;;19.70;99.90;;;;;;5064703;28;20408;-80
2021/03/16 00:32:23;;;;;;;5.35;1.08;;;19.80;99.90;;;;;;5074977;28;20476;-80
2021/03/16 00:34:50;;;;;;;5.03;1.27;;;20.10;99.90;;;;;;5076514;28;20378;-80
2021/03/16 00:37:17;;;;;;;5.53;1.02;;;20.40;99.90;;;;;;5070207;28;20401;-80
2021/03/16 00:39:44;;;;;;;4.75;1.33;;;20.60;99.90;;;;;;5078076;28;20824;-81
2021/03/16 00:42:11;;;;;;;5.82;1.20;;;20.60;99.90;;;;;;5089193;28;20821;-82
2021/03/16 00:44:38;;;;;;;5.93;1.20;;;20.60;99.90;;;;;;5070609;28;20405;-81
2021/03/16 00:47:05;;;;;;;3.57;0.90;;;20.70;99.90;;;;;;5074440;28;20404;-80
2021/03/16 00:49:32;;;;;;;5.13;1.10;;;20.40;99.90;;;;;;5079974;28;20463;-80
2021/03/16 00:51:59;;;;;;;3.97;1.07;;;20.30;99.90;;;;;;5071642;28;20394;-81
2021/03/16 00:54:26;;;;;;;4.72;1.13;;;20.10;99.90;;;;;;5077762;28;20397;-80
2021/03/16 00:56:53;;;;;;;5.15;1.00;;;20.00;99.90;;;;;;5070928;28;20408;-81
2021/03/16 00:59:20;;;;;;;2.85;1.00;;;19.90;99.90;;;;;;5073433;28;20869;-82
2021/03/16 01:01:47;;;;;;;6.28;1.30;;;19.90;99.90;;;;;;5080113;28;20993;-83
2021/03/16 01:04:14;;;;;;;4.22;1.00;;;19.80;99.90;;;;;;5057806;28;20395;-82
2021/03/16 01:06:41;;;;;;;3.25;0.90;;;19.80;99.90;;;;;;5087143;28;20445;-82
2021/03/16 01:09:08;;;;;;;4.68;1.30;;;19.80;99.90;;;;;;5084692;28;21017;-82
2021/03/16 01:11:35;;;;;;;3.20;1.00;;;19.60;99.90;;;;;;5070425;28;20801;-82
2021/03/16 01:14:03;;;;;;;5.05;1.05;;;19.50;99.90;;;;;;5071352;28;20398;-81
2021/03/16 01:16:30;;;;;;;3.45;1.08;;;19.50;99.90;;;;;;5079653;28;20430;-81
2021/03/16 01:18:57;;;;;;;4.07;1.20;;;19.60;99.90;;;;;;5086279;28;20370;-82
2021/03/16 01:21:25;;;;;;;3.33;1.00;;;19.80;99.90;;;;;;5066244;28;20761;-82
2021/03/16 01:23:52;;;;;;;2.40;1.10;;;19.90;99.90;;;;;;5069582;28;20884;-82
2021/03/16 01:26:19;;;;;;;1.85;0.60;;;20.10;99.90;;;;;;5070266;28;20463;-82
2021/03/16 01:28:46;;;;;;;3.10;0.80;;;20.30;99.90;;;;;;5071398;28;20526;-83
2021/03/16 01:31:13;;;;;;;4.07;1.00;;;20.40;99.90;;;;;;5089098;28;20395;-82
2021/03/16 01:33:40;;;;;;;2.33;0.63;;;20.50;99.90;;;;;;5087916;28;20396;-81
2021/03/16 01:36:07;;;;;;;5.67;0.83;;;20.60;99.90;;;;;;5083464;28;20932;-81
2021/03/16 01:38:34;;;;;;;3.13;0.60;;;20.70;99.90;;;;;;5073101;28;20394;-81
2021/03/16 01:41:01;;;;;;;2.17;0.60;;;20.90;99.90;;;;;;5084689;28;20475;-80
2021/03/16 01:43:30;;;;;;;1.20;0.47;;;21.00;99.90;;;;;;5074237;28;20428;-80
2021/03/16 01:45:58;;;;;;;1.52;0.50;;;21.10;99.90;;;;;;5081533;28;20406;-81
2021/03/16 01:48:36;;;;;;;1.58;0.45;;;21.00;99.90;;;;;;5076413;28;20388;-81
2021/03/16 01:51:11;;;;;;;1.60;0.68;;;20.90;99.90;;;;;;5073847;28;20481;-81
2021/03/16 01:53:40;;;;;;;0.60;0.40;;;20.60;99.90;;;;;;5069836;28;20406;-81
2021/03/16 01:56:08;;;;;;;1.63;0.43;;;20.60;99.90;;;;;;5074950;28;20395;-81
2021/03/16 01:58:36;;;;;;;1.80;0.40;;;20.80;99.90;;;;;;5083352;28;20396;-80
2021/03/16 02:01:03;;;;;;;2.38;0.68;;;20.80;99.90;;;;;;5070545;28;20508;-81
2021/03/16 02:03:30;;;;;;;2.20;0.52;;;20.60;99.90;;;;;;5080108;28;20936;-81
2021/03/16 02:05:57;;;;;;;1.23;0.40;;;20.60;99.90;;;;;;5074463;28;20402;-80
2021/03/16 02:08:34;;;;;;;2.63;0.90;;;20.90;99.90;;;;;;5072371;28;20422;-81
2021/03/16 02:11:31;;;;;;;2.38;0.60;;;21.10;99.90;;;;;;5069449;28;20398;-79
2021/03/16 02:14:13;;;;;;;1.63;0.50;;;21.10;99.90;;;;;;5070505;28;20745;-80
2021/03/16 02:16:53;;;;;;;0.85;0.47;;;20.90;99.90;;;;;;5063306;28;20386;-83
2021/03/16 02:19:52;;;;;;;1.77;0.43;;;20.70;99.90;;;;;;5070091;28;20402;-83
2021/03/16 02:22:21;;;;;;;2.65;0.50;;;20.60;99.90;;;;;;5043967;28;20492;-81
2021/03/16 02:24:48;;;;;;;1.70;0.50;;;20.40;99.90;;;;;;5070127;28;20428;-82
2021/03/16 02:27:19;;;;;;;1.92;0.57;;;20.50;99.90;;;;;;5067589;28;20386;-81
2021/03/16 02:29:55;;;;;;;2.75;0.52;;;20.40;99.90;;;;;;5081245;28;20375;-82
2021/03/16 02:32:26;;;;;;;3.50;0.50;;;20.50;99.90;;;;;;5068690;28;20820;-82
2021/03/16 02:34:57;;;;;;;2.25;0.50;;;20.50;99.90;;;;;;5070779;28;22067;-80
2021/03/16 02:37:38;;;;;;;2.63;0.60;;;20.50;99.90;;;;;;5068602;28;20398;-81
2021/03/16 02:40:07;;;;;;;2.47;0.60;;;20.40;99.90;;;;;;5065449;28;20401;-82
2021/03/16 02:42:35;;;;;;;1.25;0.40;;;20.40;99.90;;;;;;5067768;28;20815;-82
2021/03/16 02:45:04;;;;;;;1.92;0.45;;;20.50;99.90;;;;;;5064789;28;20445;-82
2021/03/16 02:47:31;;;;;;;2.10;0.57;;;20.40;99.90;;;;;;5068455;28;20386;-82
2021/03/16 02:49:59;;;;;;;1.67;0.50;;;20.20;99.90;;;;;;5066798;28;20394;-82
2021/03/16 02:52:27;;;;;;;2.58;0.50;;;19.90;99.90;;;;;;5075625;28;20398;-81
2021/03/16 02:54:56;;;;;;;2.60;0.82;;;19.80;99.90;;;;;;5066651;28;20385;-81
2021/03/16 02:57:24;;;;;;;2.50;0.63;;;19.40;99.90;;;;;;5066928;28;20773;-80
2021/03/16 02:59:52;;;;;;;1.77;0.50;;;19.20;99.90;;;;;;5069105;28;20473;-81
2021/03/16 03:02:20;;;;;;;2.15;0.70;;;19.10;99.90;;;;;;5066216;28;20492;-81
2021/03/16 03:04:48;;;;;;;3.03;0.70;;;19.00;99.90;;;;;;5067930;28;20517;-82
2021/03/16 03:07:16;;;;;;;3.13;0.70;;;19.00;99.90;;;;;;5066955;28;20398;-79
2021/03/16 03:09:44;;;;;;;2.60;0.60;;;18.80;99.90;;;;;;5067900;28;20468;-82
2021/03/16 03:12:14;;;;;;;2.78;0.70;;;18.70;99.90;;;;;;5078296;28;20880;-82
2021/03/16 03:14:41;;;;;;;1.60;0.60;;;18.70;99.90;;;;;;5077528;28;20388;-80
2021/03/16 03:17:09;;;;;;;2.60;0.60;;;18.70;99.90;;;;;;5068175;28;20385;-82
2021/03/16 03:19:36;;;;;;;5.07;0.90;;;18.80;99.90;;;;;;5054254;28;20813;-80
2021/03/16 03:22:21;;;;;;;3.83;1.10;;;19.00;99.90;;;;;;5070569;28;22092;-81
2021/03/16 03:24:56;;;;;;;2.47;0.80;;;18.90;99.90;;;;;;5066379;28;21277;-82
2021/03/16 03:27:28;;;;;;;3.57;0.90;;;18.70;99.90;;;;;;5083272;28;20514;-82
2021/03/16 03:29:57;;;;;;;5.95;0.93;;;18.70;99.90;;;;;;5088730;28;20397;-82
2021/03/16 03:32:27;;;;;;;4.90;0.80;;;18.60;99.90;;;;;;5076609;28;20921;-80
2021/03/16 03:34:58;;;;;;;3.40;0.60;;;18.50;99.90;;;;;;5077908;28;20736;-81
2021/03/16 03:37:26;;;;;;;2.57;0.83;;;18.40;99.90;;;;;;5076774;28;20490;-81
2021/03/16 03:39:53;;;;;;;2.30;0.55;;;18.50;99.90;;;;;;5077587;28;20723;-79
2021/03/16 03:42:21;;;;;;;2.20;0.52;;;18.50;99.90;;;;;;5069209;28;20409;-82
2021/03/16 03:44:50;;;;;;;3.80;0.90;;;18.50;99.90;;;;;;5055175;28;20401;-82
2021/03/16 03:47:18;;;;;;;4.90;0.65;;;18.40;99.90;;;;;;5070410;28;20382;-81
2021/03/16 03:49:46;;;;;;;1.58;0.52;;;18.50;99.90;;;;;;5069984;28;20366;-83
2021/03/16 03:52:15;;;;;;;1.53;0.50;;;18.60;99.90;;;;;;5070825;28;20398;-82
2021/03/16 03:54:44;;;;;;;2.10;0.60;;;18.50;99.90;;;;;;5068513;28;20433;-81
2021/03/16 03:57:15;;;;;;;2.50;0.68;;;18.50;99.90;;;;;;5068942;28;20447;-83
2021/03/16 03:59:45;;;;;;;2.70;0.68;;;18.50;99.90;;;;;;5064930;28;20396;-82
2021/03/16 04:02:13;;;;;;;1.83;0.63;;;18.30;99.90;;;;;;5067231;28;20907;-82
2021/03/16 04:04:40;;;;;;;1.52;0.40;;;18.30;99.90;;;;;;5071660;28;20479;-83
2021/03/16 04:07:09;;;;;;;3.45;0.70;;;18.20;99.90;;;;;;5075086;28;20398;-81
2021/03/16 04:09:36;;;;;;;3.80;0.90;;;18.30;99.90;;;;;;5071648;28;20401;-82
2021/03/16 04:12:07;;;;;;;1.23;0.60;;;18.30;99.90;;;;;;5059193;28;20859;-83
2021/03/16 04:14:35;;;;;;;1.95;0.70;;;18.40;99.90;;;;;;5071309;28;20476;-83
2021/03/16 04:17:03;;;;;;;1.25;0.45;;;18.50;99.90;;;;;;5072724;28;20413;-83
2021/03/16 04:19:30;;;;;;;3.70;0.80;;;18.60;99.90;;;;;;5071770;28;20378;-83
2021/03/16 04:21:57;;;;;;;3.42;0.80;;;18.70;99.90;;;;;;5077981;28;20431;-83
2021/03/16 04:24:24;;;;;;;2.47;0.65;;;18.80;99.90;;;;;;5081539;28;20764;-84
2021/03/16 04:26:51;;;;;;;3.22;0.60;;;18.80;99.90;;;;;;5076513;28;21121;-83
2021/03/16 04:29:18;;;;;;;1.73;0.60;;;18.80;99.90;;;;;;5082347;28;20374;-82
2021/03/16 04:31:45;;;;;;;2.70;0.90;;;18.70;99.90;;;;;;5070989;28;20398;-83
2021/03/16 04:34:12;;;;;;;1.90;0.60;;;18.90;99.90;;;;;;5082879;28;20958;-83
2021/03/16 04:36:39;;;;;;;2.10;0.65;;;18.90;99.90;;;;;;5061621;28;20495;-83
2021/03/16 04:39:06;;;;;;;2.15;0.70;;;18.80;99.90;;;;;;5054708;28;20399;-83
2021/03/16 04:41:33;;;;;;;2.05;0.50;;;18.90;99.90;;;;;;5061690;28;20489;-83
2021/03/16 04:44:00;;;;;;;3.35;0.70;;;18.90;99.90;;;;;;5051666;28;20395;-84
2021/03/16 04:46:27;;;;;;;2.22;0.80;;;18.90;99.90;;;;;;5052171;28;20368;-82
2021/03/16 04:48:54;;;;;;;1.25;0.60;;;18.90;99.90;;;;;;5051556;28;20399;-83
2021/03/16 04:51:23;;;;;;;3.63;0.70;;;19.00;99.90;;;;;;5059695;28;20481;-82
2021/03/16 04:53:50;;;;;;;2.33;0.77;;;19.00;99.90;;;;;;5065871;28;20549;-83
2021/03/16 04:56:16;;;;;;;2.78;0.95;;;19.00;99.90;;;;;;5068896;28;20492;-83
2021/03/16 04:58:43;;;;;;;3.20;0.88;;;18.90;99.90;;;;;;5065866;28;20425;-82
2021/03/16 05:01:11;;;;;;;2.85;0.77;;;18.80;99.90;;;;;;5060297;28;20434;-83
2021/03/16 05:03:38;;;;;;;3.73;0.80;;;18.80;99.90;;;;;;5060189;28;20491;-83
2021/03/16 05:06:05;;;;;;;3.13;0.93;;;18.80;99.90;;;;;;5051547;28;20433;-84
2021/03/16 05:08:32;;;;;;;3.47;0.90;;;18.90;99.90;;;;;;5052461;28;20398;-83
2021/03/16 05:10:59;;;;;;;2.63;1.05;;;19.00;99.90;;;;;;5053195;28;20756;-83
2021/03/16 05:13:26;;;;;;;2.58;0.90;;;19.10;99.90;;;;;;5064332;28;20912;-83
2021/03/16 05:15:53;;;;;;;2.78;0.90;;;19.10;99.90;;;;;;5059728;28;20472;-84
2021/03/16 05:18:19;;;;;;;4.70;1.17;;;19.20;99.90;;;;;;5053703;28;20418;-84
2021/03/16 05:20:46;;;;;;;3.22;1.10;;;19.20;99.90;;;;;;5056823;28;20931;-84
2021/03/16 05:23:13;;;;;;;5.63;1.25;;;19.20;99.90;;;;;;5052552;28;20411;-84
2021/03/16 05:25:40;;;;;;;4.53;1.20;;;19.20;99.90;;;;;;5051408;28;20376;-83
2021/03/16 05:28:07;;;;;;;4.07;1.30;;;19.10;99.90;;;;;;5064126;28;20466;-85
2021/03/16 05:30:34;;;;;;;8.63;1.40;;;19.20;99.90;;;;;;5060573;28;20386;-84
2021/03/16 05:33:02;;;;;;;4.93;1.25;;;19.10;99.90;;;;;;5065095;28;20401;-83
2021/03/16 05:35:29;;;;;;;5.18;1.52;;;18.90;99.90;;;;;;5061572;28;20394;-83
2021/03/16 05:37:58;;;;;;;5.75;1.60;;;18.80;99.90;;;;;;5070447;28;20429;-83
2021/03/16 05:40:30;;;;;;;5.20;1.27;;;18.80;99.90;;;;;;5071086;28;20362;-84
2021/03/16 05:42:58;;;;;;;4.97;1.10;;;18.80;99.90;;;;;;5072495;28;20406;-84
2021/03/16 05:45:26;;;;;;;4.80;1.30;;;18.70;99.90;;;;;;5070876;28;20390;-84
2021/03/16 05:47:54;;;;;;;4.03;1.50;;;18.50;99.90;;;;;;5069899;28;20857;-83
2021/03/16 05:50:21;;;;;;;4.05;1.48;;;18.50;99.90;;;;;;5080837;28;20430;-83
2021/03/16 05:52:48;;;;;;;4.28;1.40;;;18.50;99.90;;;;;;5072710;28;20394;-83
2021/03/16 05:55:15;;;;;;;3.42;1.33;;;18.40;99.90;;;;;;5077653;28;20366;-84
2021/03/16 05:57:43;;;;;;;6.07;1.90;;;18.20;99.90;;;;;;5070233;28;20395;-83
2021/03/16 06:00:10;;;;;;;4.07;1.33;;;18.20;99.90;;;;;;5070332;28;20769;-83
2021/03/16 06:02:38;;;;;;;5.82;1.30;;;18.20;99.90;;;;;;5070122;28;20913;-83
2021/03/16 06:05:06;;;;;;;3.10;1.30;;;18.20;99.90;;;;;;5072050;28;20423;-84
2021/03/16 06:07:33;;;;;;;3.15;0.80;;;18.10;99.90;;;;;;5081217;28;20427;-84
2021/03/16 06:10:01;;;;;;;2.45;1.00;;;18.10;99.90;;;;;;5076494;28;20398;-84
2021/03/16 06:12:36;;;;;;;2.50;0.77;;;18.20;99.90;;;;;;5061581;28;20421;-83
2021/03/16 06:15:30;;;;;;;1.30;0.70;;;18.30;99.90;;;;;;5069366;28;20384;-84
2021/03/16 06:17:57;;;;;;;2.50;0.80;;;18.30;99.90;;;;;;5063890;28;20469;-83
2021/03/16 06:20:29;;;;;;;3.33;0.90;;;18.40;99.90;;;;;;5077647;28;20388;-84
2021/03/16 06:23:08;;;;;;;2.77;1.00;;;18.50;99.90;;;;;;5072279;28;20453;-83
2021/03/16 06:25:42;;;;;;;1.80;0.85;;;18.50;99.90;;;;;;5067058;28;20413;-84
2021/03/16 06:28:11;;;;;;;2.20;0.93;;;18.50;99.90;;;;;;5073672;28;20403;-83
2021/03/16 06:30:39;;;;;;;2.83;0.80;;;18.40;99.90;;;;;;5068375;28;20536;-82
2021/03/16 06:33:30;;;;;;;2.60;0.70;;;18.40;99.90;;;;;;5076079;28;20397;-84
2021/03/16 06:36:05;;;;;;;2.72;0.70;;;18.40;99.90;;;;;;5078238;28;20497;-83
2021/03/16 06:38:33;;;;;;;3.17;1.00;;;18.40;99.90;;;;;;5074749;28;20441;-83
2021/03/16 06:41:12;;;;;;;2.63;0.82;;;18.40;99.90;;;;;;5070269;28;20796;-83
2021/03/16 06:43:41;;;;;;;3.33;1.10;;;18.30;99.90;;;;;;5061667;28;20410;-83
2021/03/16 06:46:08;;;;;;;1.95;0.80;;;18.30;99.90;;;;;;5063036;28;20474;-82
2021/03/16 06:48:37;;;;;;;1.90;0.98;;;18.30;99.90;;;;;;5065419;28;20390;-82
2021/03/16 06:51:15;;;;;;;3.28;0.90;;;18.30;99.90;;;;;;5076656;28;20398;-82
2021/03/16 06:53:42;;;;;;;2.30;0.80;;;18.40;99.90;;;;;;5062834;28;20400;-82
2021/03/16 06:56:09;;;;;;;3.00;0.80;;;18.30;99.90;;;;;;5071178;28;20451;-83
2021/03/16 06:58:36;;;;;;;2.97;0.90;;;18.30;99.90;;;;;;5074863;28;20849;-84
2021/03/16 07:01:09;;;;;;;2.58;0.88;;;18.20;99.90;;;;;;5083679;28;20388;-83
2021/03/16 07:03:39;;;;;;;2.75;1.02;;;18.30;99.90;;;;;;5064090;28;20393;-82
2021/03/16 07:06:18;;;;;;;2.50;0.70;;;18.30;99.90;;;;;;5068443;28;20905;-83
2021/03/16 07:08:47;;;;;;;3.03;0.77;;;18.30;99.90;;;;;;5071446;28;20443;-84
2021/03/16 07:11:19;;;;;;;3.90;1.07;;;18.30;99.90;;;;;;5069159;28;20378;-84
2021/03/16 07:13:47;;;;;;;3.58;0.98;;;18.30;99.90;;;;;;5070605;28;20382;-82
2021/03/16 07:16:14;;;;;;;2.45;0.90;;;18.20;99.90;;;;;;5062632;28;20396;-85
2021/03/16 07:18:46;;;;;;;2.47;0.75;;;18.20;99.90;;;;;;5068154;28;20443;-84
2021/03/16 07:21:21;;;;;;;1.38;0.50;;;18.00;99.90;;;;;;5065997;28;20398;-83
2021/03/16 07:23:53;;;;;;;1.00;0.40;;;17.90;99.90;;;;;;5065365;28;20406;-83
2021/03/16 07:26:20;;;;;;;1.42;0.55;;;17.90;99.90;;;;;;5067703;28;20401;-83
2021/03/16 07:28:48;;;;;;;2.10;0.50;;;17.90;99.90;;;;;;5068216;28;20406;-84
2021/03/16 07:31:15;;;;;;;1.38;0.50;;;17.90;99.90;;;;;;5067695;28;20800;-82
2021/03/16 07:33:43;;;;;;;2.20;0.47;;;17.90;99.90;;;;;;5070815;28;20477;-82
2021/03/16 07:36:10;;;;;;;1.77;0.60;;;17.80;99.90;;;;;;5067170;28;20730;-82
2021/03/16 07:38:39;;;;;;;2.03;0.52;;;17.90;99.90;;;;;;5067364;28;21180;-82
2021/03/16 07:41:08;;;;;;;1.08;0.57;;;17.90;99.90;;;;;;5067426;28;20453;-83
2021/03/16 07:43:38;;;;;;;1.70;0.50;;;17.90;99.90;;;;;;5067770;28;20420;-83
2021/03/16 07:46:41;;;;;;;1.67;0.60;;;18.00;99.90;;;;;;5081613;28;20415;-82
2021/03/16 07:49:13;;;;;;;1.90;0.90;;;18.00;99.90;;;;;;5051832;28;20441;-82
2021/03/16 07:51:45;;;;;;;1.95;0.90;;;17.90;99.90;;;;;;5086954;28;21108;-82
2021/03/16 07:54:13;;;;;;;2.10;0.98;;;17.90;99.90;;;;;;5083732;28;20428;-83
2021/03/16 07:56:41;;;;;;;2.17;1.10;;;17.90;99.90;;;;;;5059719;28;20913;-83
2021/03/16 07:59:09;;;;;;;5.60;1.42;;;18.00;99.90;;;;;;5072616;28;20388;-83
2021/03/16 08:01:49;;;;;;;4.78;1.20;;;18.00;99.90;;;;;;5088807;28;20759;-82
2021/03/16 08:04:16;;;;;;;3.30;1.20;;;18.00;99.90;;;;;;5079752;28;20394;-83
2021/03/16 08:06:43;;;;;;;3.73;1.30;;;17.90;99.90;;;;;;5068542;28;20366;-82
2021/03/16 08:09:23;;;;;;;2.72;1.10;;;18.00;99.90;;;;;;5069486;28;20374;-82
2021/03/16 08:11:50;;;;;;;3.33;1.00;;;17.90;99.90;;;;;;5069219;28;20464;-82
2021/03/16 08:14:30;;;;;;;1.00;0.82;;;18.00;99.90;;;;;;5070401;28;20425;-84
2021/03/16 08:16:57;;;;;;;3.60;1.00;;;18.00;99.90;;;;;;5054496;28;20385;-84
2021/03/16 08:19:37;;;;;;;3.70;1.00;;;18.00;99.90;;;;;;5067777;28;20480;-82
2021/03/16 08:22:05;;;;;;;2.92;0.98;;;18.00;99.90;;;;;;5063607;28;20499;-82
2021/03/16 08:24:42;;;;;;;1.77;0.90;;;18.00;99.90;;;;;;5064175;28;20513;-82
2021/03/16 08:27:14;;;;;;;3.65;0.82;;;18.00;99.90;;;;;;5074512;28;20400;-84
2021/03/16 08:29:50;;;;;;;1.00;0.60;;;18.00;99.90;;;;;;5071956;28;20469;-83
2021/03/16 08:32:19;;;;;;;2.60;0.60;;;17.90;99.90;;;;;;5062412;28;20394;-84
2021/03/16 08:34:47;;;;;;;1.00;0.70;;;17.90;99.90;;;;;;5066270;28;20386;-82
2021/03/16 08:37:40;;;;;;;4.32;1.13;;;17.80;99.90;;;;;;5050273;28;20420;-81
2021/03/16 08:40:20;;;;;;;3.55;0.98;;;17.80;99.90;;;;;;5055731;28;20488;-81
2021/03/16 08:42:47;;;;;;;5.38;1.10;;;17.70;99.90;;;;;;5051522;28;20417;-80
2021/03/16 08:45:14;;;;;;;3.17;0.95;;;17.70;99.90;;;;;;5049343;28;20403;-80
2021/03/16 08:47:41;;;;;;;3.47;0.93;;;17.70;99.90;;;;;;5063490;28;21195;-80
2021/03/16 08:50:09;;;;;;;5.73;1.10;;;17.70;99.90;;;;;;5050693;28;20424;-80
2021/03/16 08:52:36;;;;;;;2.95;0.95;;;17.80;99.90;;;;;;5058837;28;20384;-81
2021/03/16 08:55:03;;;;;;;5.63;0.90;;;17.80;99.90;;;;;;5031895;28;20388;-81
2021/03/16 08:57:31;;;;;;;2.67;0.93;;;17.80;99.90;;;;;;5036600;28;20464;-80
2021/03/16 09:00:01;;;;;;;3.60;0.85;;;17.80;99.90;;;;;;5035715;28;20407;-80
2021/03/16 09:02:35;;;;;;;3.95;0.88;;;17.80;99.90;;;;;;5062144;28;20415;-80
2021/03/16 09:05:03;;;;;;;5.22;1.00;;;17.80;99.90;;;;;;5049800;28;20404;-81
2021/03/16 09:07:32;;;;;;;3.00;0.90;;;17.90;99.90;;;;;;5049815;28;20961;-80
2021/03/16 09:10:05;;;;;;;4.38;0.80;;;17.90;99.90;;;;;;5041525;28;20410;-79
2021/03/16 09:12:35;;;;;;;4.40;1.40;;;17.90;99.90;;;;;;5048964;28;20415;-79
2021/03/16 09:15:09;;;;;;;5.88;1.40;;;18.00;99.90;;;;;;5042914;28;20402;-80
2021/03/16 09:17:38;;;;;;;5.03;1.10;;;17.90;99.90;;;;;;5050480;28;20897;-80
2021/03/16 09:20:32;;;;;;;4.05;1.15;;;17.90;99.90;;;;;;5049409;28;20383;-81
2021/03/16 09:23:02;;;;;;;4.78;0.90;;;17.80;99.90;;;;;;5054513;28;20441;-79
2021/03/16 09:25:31;;;;;;;6.15;1.00;;;17.80;99.90;;;;;;5062147;28;20881;-80
2021/03/16 09:28:02;;;;;;;3.75;0.93;;;17.90;99.90;;;;;;5045108;28;20441;-80
2021/03/16 09:30:44;;;;;;;3.20;0.90;;;17.80;99.90;;;;;;5047720;28;20399;-80
2021/03/16 09:33:13;;;;;;;6.53;1.00;;;17.80;99.90;;;;;;5050046;28;20479;-81
2021/03/16 09:35:40;;;;;;;6.90;1.20;;;17.90;99.90;;;;;;5064578;28;20402;-80
2021/03/16 09:38:08;;;;;;;4.40;1.00;;;17.90;99.90;;;;;;5067045;28;20398;-79
2021/03/16 09:40:37;;;;;;;4.55;1.35;;;17.90;99.90;;;;;;5079639;28;20454;-81
2021/03/16 09:43:25;;;;;;;5.22;1.20;;;17.90;99.90;;;;;;5074689;28;20972;-81
2021/03/16 09:46:06;;;;;;;4.75;1.30;;;17.90;99.90;;;;;;5066896;28;20410;-81
2021/03/16 09:48:33;;;;;;;9.68;1.50;;;17.80;99.90;;;;;;5066971;28;20398;-81
2021/03/16 09:51:11;;;;;;;4.87;1.20;;;17.80;99.90;;;;;;5070932;28;20495;-82
2021/03/16 09:53:40;;;;;;;8.27;1.70;;;17.70;99.90;;;;;;5079263;28;20497;-82
2021/03/16 09:56:09;;;;;;;8.00;1.40;;;17.60;99.90;;;;;;5067962;28;20393;-81
2021/03/16 09:58:36;;;;;;;10.05;1.55;;;17.60;99.90;;;;;;5067611;28;20448;-81
2021/03/16 10:01:05;;;;;;;10.70;1.60;;;17.60;99.90;;;;;;5081805;28;20380;-81
2021/03/16 10:03:32;;;;;;;8.40;1.55;;;17.50;99.90;;;;;;5078786;28;20892;-83
2021/03/16 10:06:07;;;;;;;9.43;1.80;;;17.50;99.90;;;;;;5065996;28;20448;-82
2021/03/16 10:08:35;;;;;;;8.70;1.30;;;17.50;99.90;;;;;;5063525;28;20421;-82
2021/03/16 10:11:03;;;;;;;9.98;1.98;;;17.60;99.90;;;;;;5067243;28;20401;-82
2021/03/16 10:13:31;;;;;;;10.98;1.70;;;17.60;99.90;;;;;;5066784;28;20459;-82
2021/03/16 10:16:13;;;;;;;9.50;1.55;;;17.50;99.90;;;;;;5066956;28;20726;-82
2021/03/16 10:18:46;;;;;;;7.83;1.53;;;17.50;99.90;;;;;;5069495;28;20953;-82
2021/03/16 10:21:13;;;;;;;16.27;2.40;;;17.50;99.90;;;;;;5068118;28;20459;-81
2021/03/16 10:23:40;;;;;;;12.23;1.90;;;17.50;99.90;;;;;;5067078;28;20758;-81
2021/03/16 10:26:09;;;;;;;11.63;2.13;;;17.50;99.90;;;;;;5062675;28;20516;-82
2021/03/16 10:28:38;;;;;;;13.17;2.27;;;17.50;99.90;;;;;;5066726;28;20390;-82
2021/03/16 10:31:16;;;;;;;13.82;1.95;;;17.50;99.90;;;;;;5073777;28;20421;-82
2021/03/16 10:33:48;;;;;;;18.85;2.45;;;17.50;99.90;;;;;;5083267;28;20445;-83
2021/03/16 10:36:15;;;;;;;18.13;2.95;;;17.50;99.90;;;;;;5072055;28;20762;-82
2021/03/16 10:38:43;;;;;;;19.05;2.85;;;17.50;99.90;;;;;;5074107;28;20405;-82
2021/03/16 10:41:10;;;;;;;22.70;3.33;;;17.40;99.90;;;;;;5067014;28;20465;-85
2021/03/16 10:43:37;;;;;;;22.77;3.45;;;17.40;99.90;;;;;;5066347;28;20393;-82
2021/03/16 10:46:04;;;;;;;19.50;3.35;;;17.30;99.90;;;;;;5071325;28;20386;-83
2021/03/16 10:48:31;;;;;;;23.10;3.72;;;17.30;99.90;;;;;;5068649;28;20481;-83
2021/03/16 10:50:57;;;;;;;20.73;3.22;;;17.30;99.90;;;;;;5066560;28;20393;-82
2021/03/16 10:53:24;;;;;;;19.17;3.07;;;17.30;99.90;;;;;;5077121;28;20595;-82
2021/03/16 10:55:51;;;;;;;24.93;4.03;;;17.30;99.90;;;;;;5084810;28;20486;-81
2021/03/16 10:58:18;;;;;;;23.43;3.83;;;17.30;99.90;;;;;;5066093;28;20489;-82
2021/03/16 11:00:45;;;;;;;22.67;3.93;;;17.30;99.90;;;;;;5075163;28;20835;-82
2021/03/16 11:03:12;;;;;;;23.10;3.63;;;17.20;99.90;;;;;;5066433;28;20533;-81
2021/03/16 11:05:39;;;;;;;20.85;2.90;;;17.30;99.90;;;;;;5066369;28;20795;-82
2021/03/16 11:08:06;;;;;;;25.13;3.78;;;17.20;99.90;;;;;;5068331;28;20398;-81
2021/03/16 11:10:33;;;;;;;20.70;3.05;;;17.30;99.90;;;;;;5066361;28;20443;-80
2021/03/16 11:13:00;;;;;;;24.13;3.50;;;17.20;99.90;;;;;;5066330;28;20382;-81
2021/03/16 11:15:27;;;;;;;18.50;2.95;;;17.30;99.90;;;;;;5064993;28;20457;-81
2021/03/16 11:17:54;;;;;;;19.15;3.30;;;17.30;99.90;;;;;;5067992;28;20390;-81
2021/03/16 11:20:21;;;;;;;17.85;3.50;;;17.30;99.90;;;;;;5067519;28;20887;-82
2021/03/16 11:22:48;;;;;;;21.52;3.53;;;17.30;99.90;;;;;;5073701;28;20495;-82
2021/03/16 11:25:16;;;;;;;17.58;3.05;;;17.30;99.90;;;;;;5069473;28;20397;-82
2021/03/16 11:27:42;;;;;;;16.20;2.70;;;17.40;99.90;;;;;;5067089;28;20406;-82
2021/03/16 11:30:10;;;;;;;22.35;3.63;;;17.40;99.90;;;;;;5063934;28;20394;-82
2021/03/16 11:32:37;;;;;;;20.65;3.22;;;17.50;99.90;;;;;;5077384;28;20748;-82
2021/03/16 11:35:05;;;;;;;20.52;3.28;;;17.50;99.90;;;;;;5066048;28;20476;-82
2021/03/16 11:37:32;;;;;;;15.82;2.70;;;17.50;99.90;;;;;;5063499;28;21786;-82
2021/03/16 11:39:59;;;;;;;19.20;2.45;;;17.50;99.90;;;;;;5062860;28;20447;-82
2021/03/16 11:42:26;;;;;;;19.95;3.00;;;17.50;99.90;;;;;;5066190;28;21970;-82
2021/03/16 11:44:53;;;;;;;16.67;2.78;;;17.50;99.90;;;;;;5068610;28;20922;-82
2021/03/16 11:47:20;;;;;;;19.45;3.13;;;17.50;99.90;;;;;;5069203;28;20378;-81
2021/03/16 11:49:47;;;;;;;20.15;3.33;;;17.50;99.90;;;;;;5070655;28;20378;-82
2021/03/16 11:52:14;;;;;;;17.27;2.90;;;17.60;99.90;;;;;;5069305;28;20393;-82
2021/03/16 11:54:40;;;;;;;15.63;2.90;;;17.50;99.90;;;;;;5068715;28;20429;-83
2021/03/16 11:57:08;;;;;;;15.48;3.05;;;17.50;99.90;;;;;;5069847;28;20386;-82
2021/03/16 11:59:35;;;;;;;14.98;2.28;;;17.40;99.90;;;;;;5069606;28;21137;-82
2021/03/16 12:02:02;;;;;;;21.00;3.08;;;17.40;99.90;;;;;;5067645;28;20450;-83
2021/03/16 12:04:29;;;;;;;21.52;3.15;;;17.40;99.90;;;;;;5071253;28;20869;-83
2021/03/16 12:06:56;;;;;;;14.17;3.00;;;17.40;99.90;;;;;;5071662;28;20770;-82
2021/03/16 12:09:23;;;;;;;17.23;3.33;;;17.40;99.90;;;;;;5082843;28;20409;-82
2021/03/16 12:11:50;;;;;;;15.40;2.90;;;17.30;99.90;;;;;;5078857;28;20446;-83
2021/03/16 12:14:17;;;;;;;18.77;3.17;;;17.30;99.90;;;;;;5081195;28;20419;-82
2021/03/16 12:16:44;;;;;;;14.77;2.63;;;17.30;99.90;;;;;;5069299;28;20901;-82
2021/03/16 12:19:11;;;;;;;13.90;2.60;;;17.30;99.90;;;;;;5084221;28;20380;-83
2021/03/16 12:21:38;;;;;;;17.30;2.50;;;17.40;99.90;;;;;;5076071;28;20392;-84
2021/03/16 12:24:05;;;;;;;16.25;2.95;;;17.30;99.90;;;;;;5076578;28;20487;-83
2021/03/16 12:26:32;;;;;;;18.30;3.03;;;17.30;99.90;;;;;;5069380;28;20385;-83
2021/03/16 12:28:59;;;;;;;18.42;3.00;;;17.30;99.90;;;;;;5084804;28;20810;-83
2021/03/16 12:31:26;;;;;;;16.00;2.60;;;17.20;99.90;;;;;;5072385;28;20431;-82
2021/03/16 12:33:53;;;;;;;16.02;2.72;;;17.30;99.90;;;;;;5080671;28;20380;-83
2021/03/16 12:36:20;;;;;;;12.10;2.47;;;17.30;99.90;;;;;;5082427;28;20764;-83
2021/03/16 12:38:47;;;;;;;17.02;3.03;;;17.30;99.90;;;;;;5082378;28;20907;-83
2021/03/16 12:41:14;;;;;;;15.00;2.50;;;17.30;99.90;;;;;;5089376;28;20415;-83
2021/03/16 12:43:41;;;;;;;18.35;3.13;;;17.30;99.90;;;;;;5081840;28;20453;-82
2021/03/16 12:46:08;;;;;;;13.65;2.20;;;17.20;99.90;;;;;;5084346;28;20412;-84
2021/03/16 12:48:35;;;;;;;17.88;2.95;;;17.30;99.90;;;;;;5080825;28;20455;-83
2021/03/16 12:51:02;;;;;;;16.45;3.00;;;17.30;99.90;;;;;;5084182;28;20384;-83
2021/03/16 12:53:29;;;;;;;12.87;2.30;;;17.30;99.90;;;;;;5089312;28;20748;-83
2021/03/16 12:55:56;;;;;;;15.45;2.78;;;17.30;99.90;;;;;;5079285;28;20872;-83